createdAt,value
2023-05-21T00:01:57.830Z,6.68
2023-05-21T00:05:03.657Z,6.15
2023-05-21T00:08:06.894Z,7.22
2023-05-21T00:11:08.960Z,9.05
2023-05-21T00:14:10.750Z,8.85
2023-05-21T00:17:12.804Z,7.93
2023-05-21T00:20:18.027Z,6.45
2023-05-21T00:23:20.148Z,7.15
2023-05-21T00:26:22.342Z,8.00
2023-05-21T00:29:27.038Z,7.25
2023-05-21T00:32:32.027Z,6.25
2023-05-21T00:35:37.810Z,5.97
2023-05-21T00:38:39.784Z,8.43
2023-05-21T00:41:41.866Z,8.38
2023-05-21T00:44:43.762Z,6.93
2023-05-21T00:47:46.761Z,7.30
2023-05-21T00:50:50.482Z,8.45
2023-05-21T00:53:53.136Z,6.50
2023-05-21T00:56:55.937Z,8.60
2023-05-21T00:59:57.734Z,7.70
2023-05-21T01:03:01.157Z,7.60
2023-05-21T01:06:04.895Z,7.40
2023-05-21T01:09:08.982Z,10.00
2023-05-21T01:12:11.640Z,7.82
2023-05-21T01:15:14.036Z,6.85
2023-05-21T01:18:16.103Z,8.63
2023-05-21T01:21:21.485Z,8.63
2023-05-21T01:24:29.539Z,7.97
2023-05-21T01:27:32.965Z,8.65
2023-05-21T01:30:36.389Z,9.73
2023-05-21T01:33:47.616Z,10.43
2023-05-21T01:37:00.113Z,10.05
2023-05-21T01:40:10.720Z,10.65
2023-05-21T01:43:15.196Z,8.90
2023-05-21T01:46:19.942Z,10.95
2023-05-21T01:49:22.802Z,10.88
2023-05-21T01:52:24.891Z,11.43
2023-05-21T01:55:30.972Z,10.13
2023-05-21T01:58:33.061Z,12.00
2023-05-21T02:01:35.155Z,11.75
2023-05-21T02:04:37.392Z,12.80
2023-05-21T02:07:39.162Z,13.13
2023-05-21T02:10:43.766Z,12.45
2023-05-21T02:13:47.786Z,13.48
2023-05-21T02:16:50.329Z,14.10
2023-05-21T02:19:54.939Z,14.35
2023-05-21T02:22:56.705Z,14.13
2023-05-21T02:26:02.161Z,15.60
2023-05-21T02:29:04.208Z,16.25
2023-05-21T02:32:06.982Z,16.88
2023-05-21T02:35:10.235Z,20.73
2023-05-21T02:38:12.030Z,20.55
2023-05-21T02:41:15.838Z,18.27
2023-05-21T02:44:19.717Z,16.67
2023-05-21T02:47:22.867Z,17.98
2023-05-21T02:50:28.095Z,22.55
2023-05-21T02:53:29.835Z,18.73
2023-05-21T02:56:34.578Z,17.45
2023-05-21T02:59:36.624Z,23.13
2023-05-21T03:02:38.926Z,18.63
2023-05-21T03:05:41.019Z,16.92
2023-05-21T03:08:43.292Z,17.38
2023-05-21T03:11:49.333Z,16.67
2023-05-21T03:14:51.100Z,16.33
2023-05-21T03:18:01.808Z,16.42
2023-05-21T03:21:04.869Z,17.58
2023-05-21T03:24:07.516Z,15.60
2023-05-21T03:27:10.968Z,16.00
2023-05-21T03:30:13.534Z,17.33
2023-05-21T03:33:15.908Z,15.55
2023-05-21T03:36:18.359Z,16.35
2023-05-21T03:39:22.393Z,19.58
2023-05-21T03:42:26.295Z,18.55
2023-05-21T03:45:30.843Z,15.68
2023-05-21T03:48:34.874Z,18.83
2023-05-21T03:51:39.126Z,17.77
2023-05-21T03:54:41.113Z,16.02
2023-05-21T03:57:44.427Z,15.52
2023-05-21T04:00:47.627Z,17.02
2023-05-21T04:03:49.734Z,16.85
2023-05-21T04:06:51.914Z,16.33
2023-05-21T04:09:56.439Z,16.10
2023-05-21T04:13:00.069Z,16.42
2023-05-21T04:16:04.518Z,16.13
2023-05-21T04:19:07.009Z,14.90
2023-05-21T04:22:10.930Z,15.40
2023-05-21T04:25:13.332Z,16.00
2023-05-21T04:28:16.468Z,21.55
2023-05-21T04:31:18.414Z,15.40
2023-05-21T04:34:20.527Z,16.63
2023-05-21T04:37:23.426Z,17.15
2023-05-21T04:40:25.181Z,15.38
2023-05-21T04:43:28.302Z,14.85
2023-05-21T04:46:32.668Z,15.95
2023-05-21T04:49:34.901Z,13.70
2023-05-21T04:52:37.223Z,15.48
2023-05-21T04:55:40.089Z,17.17
2023-05-21T04:58:43.808Z,18.30
2023-05-21T05:01:46.515Z,13.77
2023-05-21T05:04:48.300Z,14.88
2023-05-21T05:07:50.560Z,14.27
2023-05-21T05:10:53.018Z,18.60
2023-05-21T05:13:56.844Z,16.20
2023-05-21T05:16:59.298Z,16.05
2023-05-21T05:20:01.722Z,15.45
2023-05-21T05:23:05.871Z,13.75
2023-05-21T05:26:08.113Z,15.05
2023-05-21T05:29:11.561Z,12.63
2023-05-21T05:32:13.910Z,13.60
2023-05-21T05:35:15.705Z,17.13
2023-05-21T05:38:18.212Z,13.93
2023-05-21T05:41:20.001Z,13.90
2023-05-21T05:44:23.151Z,14.65
2023-05-21T05:47:25.146Z,15.48
2023-05-21T05:50:27.262Z,15.50
2023-05-21T05:53:29.031Z,17.33
2023-05-21T05:56:31.041Z,16.88
2023-05-21T05:59:35.968Z,14.75
2023-05-21T06:02:38.092Z,17.08
2023-05-21T06:05:40.590Z,18.63
2023-05-21T06:08:43.025Z,16.05
2023-05-21T06:11:46.130Z,16.83
2023-05-21T06:14:50.722Z,16.83
2023-05-21T06:17:52.468Z,16.25
2023-05-21T06:20:54.284Z,19.08
2023-05-21T06:24:04.615Z,14.95
2023-05-21T06:27:06.558Z,19.70
2023-05-21T06:30:12.831Z,18.30
2023-05-21T06:33:14.811Z,16.70
2023-05-21T06:36:19.934Z,18.63
2023-05-21T06:39:21.970Z,16.85
2023-05-21T06:42:23.787Z,17.95
2023-05-21T06:45:27.991Z,17.42
2023-05-21T06:48:32.480Z,18.52
2023-05-21T06:51:35.952Z,16.38
2023-05-21T06:54:38.025Z,17.55
2023-05-21T06:57:40.653Z,17.85
2023-05-21T07:00:45.226Z,17.00
2023-05-21T07:03:49.223Z,17.50
2023-05-21T07:06:51.252Z,18.50
2023-05-21T07:09:53.882Z,18.73
2023-05-21T07:12:55.623Z,20.25
2023-05-21T07:16:00.887Z,17.73
2023-05-21T07:19:03.270Z,19.25
2023-05-21T07:22:06.465Z,20.08
2023-05-21T07:25:12.049Z,16.52
2023-05-21T07:28:14.507Z,19.83
2023-05-21T07:31:17.904Z,19.85
2023-05-21T07:34:22.735Z,19.95
2023-05-21T07:37:24.922Z,20.65
2023-05-21T07:40:26.698Z,21.67
2023-05-21T07:43:28.773Z,21.80
2023-05-21T07:46:32.891Z,18.25
2023-05-21T07:49:35.647Z,21.33
2023-05-21T07:52:37.456Z,18.25
2023-05-21T07:55:41.151Z,18.40
2023-05-21T07:58:43.232Z,18.20
2023-05-21T08:01:48.727Z,17.20
2023-05-21T08:04:50.815Z,22.25
2023-05-21T08:07:55.415Z,18.58
2023-05-21T08:10:57.965Z,17.75
2023-05-21T08:14:03.548Z,16.58
2023-05-21T08:17:09.720Z,16.45
2023-05-21T08:20:12.535Z,18.17
2023-05-21T08:23:14.504Z,17.25
2023-05-21T08:26:16.655Z,19.10
2023-05-21T08:29:18.799Z,17.20
2023-05-21T08:32:23.152Z,14.77
2023-05-21T08:35:27.744Z,14.13
2023-05-21T08:38:30.374Z,15.63
2023-05-21T08:41:37.736Z,14.32
2023-05-21T08:44:48.375Z,16.50
2023-05-21T08:47:56.007Z,16.17
2023-05-21T08:50:59.353Z,14.30
2023-05-21T08:54:04.819Z,12.48
2023-05-21T08:57:09.553Z,14.65
2023-05-21T09:00:12.248Z,13.60
2023-05-21T09:03:16.450Z,12.73
2023-05-21T09:06:18.472Z,10.57
2023-05-21T09:09:27.114Z,12.32
2023-05-21T09:12:29.675Z,16.35
2023-05-21T09:15:33.520Z,13.27
2023-05-21T09:18:36.777Z,13.15
2023-05-21T09:21:39.902Z,13.73
2023-05-21T09:24:41.987Z,18.23
2023-05-21T09:27:44.049Z,11.77
2023-05-21T09:30:46.284Z,11.50
2023-05-21T09:33:50.351Z,11.60
2023-05-21T09:36:52.127Z,13.10
2023-05-21T09:39:54.665Z,11.40
2023-05-21T09:42:59.648Z,12.90
2023-05-21T09:46:02.239Z,11.43
2023-05-21T09:49:21.987Z,33.72
2023-05-21T09:52:24.911Z,11.43
2023-05-21T09:55:26.988Z,12.20
2023-05-21T09:58:30.861Z,12.85
2023-05-21T10:01:35.965Z,14.10
2023-05-21T10:04:40.856Z,10.23
2023-05-21T10:07:44.738Z,11.77
2023-05-21T10:10:49.231Z,10.68
2023-05-21T10:13:57.847Z,12.43
2023-05-21T10:17:07.826Z,10.13
2023-05-21T10:20:14.700Z,9.45
2023-05-21T10:23:17.661Z,13.27
2023-05-21T10:26:20.141Z,11.13
2023-05-21T10:29:23.722Z,11.50
2023-05-21T10:32:27.502Z,13.23
2023-05-21T10:35:35.175Z,12.07
2023-05-21T10:38:39.360Z,10.45
2023-05-21T10:41:53.772Z,8.85
2023-05-21T10:45:11.317Z,9.70
2023-05-21T10:48:28.260Z,8.95
2023-05-21T10:51:45.252Z,8.30
2023-05-21T10:55:01.187Z,11.32
2023-05-21T10:58:30.164Z,10.00
2023-05-21T11:01:35.811Z,10.20
2023-05-21T11:04:38.220Z,9.70
2023-05-21T11:07:59.912Z,10.40
2023-05-21T11:11:04.037Z,12.48
2023-05-21T11:14:29.067Z,9.82
2023-05-21T11:17:38.988Z,10.32
2023-05-21T11:20:50.228Z,9.68
2023-05-21T11:23:59.451Z,10.52
2023-05-21T11:27:02.898Z,9.50
2023-05-21T11:30:06.869Z,11.25
2023-05-21T11:33:18.556Z,11.23
2023-05-21T11:36:20.372Z,10.68
2023-05-21T11:39:26.682Z,9.13
2023-05-21T11:42:31.432Z,8.15
2023-05-21T11:45:33.623Z,11.68
2023-05-21T11:48:37.838Z,9.52
2023-05-21T11:51:40.519Z,7.60
2023-05-21T11:54:45.640Z,8.23
2023-05-21T11:57:48.226Z,12.15
2023-05-21T12:00:51.240Z,8.13
2023-05-21T12:03:53.831Z,10.63
2023-05-21T12:06:55.937Z,8.20
2023-05-21T12:10:00.676Z,9.52
2023-05-21T12:13:03.534Z,8.68
2023-05-21T12:16:08.204Z,9.10
2023-05-21T12:19:14.419Z,10.85
2023-05-21T12:22:17.300Z,10.15
2023-05-21T12:25:21.312Z,10.52
2023-05-21T12:28:24.178Z,8.55
2023-05-21T12:31:30.107Z,8.20
2023-05-21T12:34:40.539Z,7.72
2023-05-21T12:37:43.712Z,8.55
2023-05-21T12:40:48.212Z,8.88
2023-05-21T12:43:50.768Z,11.68
2023-05-21T12:46:53.290Z,9.63
2023-05-21T12:49:57.909Z,9.63
2023-05-21T12:53:03.783Z,10.32
2023-05-21T12:56:11.384Z,7.80
2023-05-21T12:59:16.269Z,9.88
2023-05-21T13:02:23.860Z,9.73
2023-05-21T13:05:26.191Z,7.85
2023-05-21T13:08:28.492Z,9.73
2023-05-21T13:11:34.090Z,10.60
2023-05-21T13:14:37.097Z,9.48
2023-05-21T13:17:38.969Z,9.27
2023-05-21T13:20:40.763Z,9.43
2023-05-21T13:23:42.533Z,9.32
2023-05-21T13:26:47.158Z,9.05
2023-05-21T13:29:49.666Z,9.07
2023-05-21T13:32:54.051Z,8.80
2023-05-21T13:35:56.224Z,7.72
2023-05-21T13:38:58.716Z,8.55
2023-05-21T13:42:04.682Z,13.00
2023-05-21T13:45:08.380Z,10.02
2023-05-21T13:48:11.581Z,10.98
2023-05-21T13:51:19.865Z,9.13
2023-05-21T13:54:29.631Z,12.85
2023-05-21T13:57:33.179Z,12.02
2023-05-21T14:00:35.044Z,10.20
2023-05-21T14:03:37.311Z,8.98
2023-05-21T14:06:39.619Z,10.80
2023-05-21T14:09:42.478Z,9.73
2023-05-21T14:12:46.179Z,10.20
2023-05-21T14:15:48.318Z,9.05
2023-05-21T14:18:50.357Z,9.57
2023-05-21T14:21:53.367Z,11.35
2023-05-21T14:24:55.454Z,9.13
2023-05-21T14:27:58.807Z,10.35
2023-05-21T14:31:02.842Z,8.50
2023-05-21T14:34:04.713Z,12.15
2023-05-21T14:37:07.153Z,9.45
2023-05-21T14:40:12.067Z,11.38
2023-05-21T14:43:15.648Z,10.05
2023-05-21T14:46:17.694Z,9.30
2023-05-21T14:49:21.972Z,12.75
2023-05-21T14:52:24.013Z,10.48
2023-05-21T14:55:26.380Z,9.48
2023-05-21T14:58:32.014Z,9.80
2023-05-21T15:01:36.958Z,10.15
2023-05-21T15:04:41.346Z,8.68
2023-05-21T15:07:43.171Z,11.98
2023-05-21T15:10:45.951Z,8.73
2023-05-21T15:13:49.551Z,9.57
2023-05-21T15:16:54.113Z,10.02
2023-05-21T15:19:56.003Z,9.95
2023-05-21T15:23:12.352Z,8.05
2023-05-21T15:26:22.328Z,12.13
2023-05-21T15:29:25.918Z,7.25
2023-05-21T15:32:27.814Z,8.73
2023-05-21T15:35:29.986Z,8.48
2023-05-21T15:38:32.390Z,13.05
2023-05-21T15:41:36.019Z,11.45
2023-05-21T15:44:41.679Z,9.85
2023-05-21T15:47:45.158Z,9.88
2023-05-21T15:50:47.025Z,9.57
2023-05-21T15:53:49.095Z,7.20
2023-05-21T15:56:51.041Z,8.05
2023-05-21T15:59:56.435Z,7.38
2023-05-21T16:02:58.675Z,8.05
2023-05-21T16:06:03.558Z,10.20
2023-05-21T16:09:06.962Z,11.75
2023-05-21T16:12:08.884Z,6.78
2023-05-21T16:15:13.333Z,8.40
2023-05-21T16:18:16.114Z,10.18
2023-05-21T16:21:18.690Z,7.68
2023-05-21T16:24:21.306Z,9.23
2023-05-21T16:27:23.551Z,8.93
2023-05-21T16:30:28.440Z,6.65
2023-05-21T16:33:32.536Z,10.20
2023-05-21T16:36:37.518Z,7.40
2023-05-21T16:39:40.886Z,8.90
2023-05-21T16:42:43.146Z,7.72
2023-05-21T16:45:48.398Z,8.80
2023-05-21T16:48:59.806Z,9.05
2023-05-21T16:52:02.612Z,7.70
2023-05-21T16:55:05.782Z,10.43
2023-05-21T16:58:08.426Z,7.82
2023-05-21T17:01:16.828Z,8.60
2023-05-21T17:04:20.381Z,11.38
2023-05-21T17:07:23.337Z,9.15
2023-05-21T17:10:25.924Z,6.57
2023-05-21T17:13:29.338Z,9.38
2023-05-21T17:16:33.461Z,9.52
2023-05-21T17:19:36.826Z,7.50
2023-05-21T17:22:40.879Z,10.10
2023-05-21T17:25:43.867Z,8.73
2023-05-21T17:28:47.372Z,9.55
2023-05-21T17:31:51.588Z,9.60
2023-05-21T17:34:57.439Z,8.57
2023-05-21T17:38:01.193Z,7.57
2023-05-21T17:41:04.126Z,7.95
2023-05-21T17:44:06.645Z,7.80
2023-05-21T17:47:13.738Z,9.02
2023-05-21T17:50:17.417Z,9.02
2023-05-21T17:53:20.975Z,8.48
2023-05-21T17:56:26.249Z,10.15
2023-05-21T17:59:29.301Z,9.18
2023-05-21T18:02:35.322Z,7.75
2023-05-21T18:05:38.963Z,8.52
2023-05-21T18:08:44.430Z,11.82
2023-05-21T18:11:47.119Z,9.57
2023-05-21T18:14:49.697Z,9.73
2023-05-21T18:17:54.848Z,9.68
2023-05-21T18:20:58.353Z,7.43
2023-05-21T18:24:01.823Z,9.57
2023-05-21T18:27:04.859Z,9.40
2023-05-21T18:30:08.858Z,11.07
2023-05-21T18:33:15.523Z,6.95
2023-05-21T18:36:18.871Z,8.13
2023-05-21T18:39:21.436Z,7.72
2023-05-21T18:42:24.300Z,8.63
2023-05-21T18:45:27.985Z,8.75
2023-05-21T18:48:32.004Z,12.32
2023-05-21T18:51:35.677Z,8.57
2023-05-21T18:54:38.409Z,8.05
2023-05-21T18:57:40.968Z,12.48
2023-05-21T19:00:43.812Z,12.05
2023-05-21T19:03:47.802Z,7.68
2023-05-21T19:06:51.440Z,8.85
2023-05-21T19:09:56.966Z,9.20
2023-05-21T19:12:59.765Z,9.15
2023-05-21T19:16:02.608Z,10.63
2023-05-21T19:19:06.655Z,8.73
2023-05-21T19:22:09.349Z,7.32
2023-05-21T19:25:11.905Z,7.15
2023-05-21T19:28:14.945Z,7.45
2023-05-21T19:31:18.862Z,8.55
2023-05-21T19:34:24.413Z,10.10
2023-05-21T19:37:28.172Z,6.38
2023-05-21T19:40:32.152Z,7.40
2023-05-21T19:43:34.749Z,9.45
2023-05-21T19:46:37.633Z,13.05
2023-05-21T19:49:41.649Z,7.00
2023-05-21T19:52:44.927Z,10.00
2023-05-21T19:55:51.741Z,8.13
2023-05-21T19:58:54.625Z,9.60
2023-05-21T20:01:59.403Z,13.40
2023-05-21T20:05:04.128Z,8.65
2023-05-21T20:08:06.732Z,8.90
2023-05-21T20:11:09.816Z,9.75
2023-05-21T20:14:12.558Z,9.63
2023-05-21T20:17:15.860Z,8.80
2023-05-21T20:20:20.396Z,15.60
2023-05-21T20:23:23.809Z,9.88
2023-05-21T20:26:26.998Z,10.65
2023-05-21T20:29:29.576Z,9.32
2023-05-21T20:32:32.129Z,10.00
2023-05-21T20:35:38.879Z,10.93
2023-05-21T20:38:41.560Z,9.75
2023-05-21T20:41:44.004Z,9.50
2023-05-21T20:44:49.398Z,10.48
2023-05-21T20:47:51.800Z,8.73
2023-05-21T20:50:56.006Z,9.80
2023-05-21T20:53:58.823Z,8.27
2023-05-21T20:57:04.134Z,9.63
2023-05-21T21:00:07.494Z,7.43
2023-05-21T21:03:09.513Z,9.10
2023-05-21T21:06:13.272Z,12.25
2023-05-21T21:09:15.043Z,11.68
2023-05-21T21:15:22.500Z,11.10
2023-05-21T21:18:24.532Z,9.68
2023-05-21T21:21:28.334Z,9.18
2023-05-21T21:24:34.169Z,10.25
2023-05-21T21:27:38.516Z,9.30
2023-05-21T21:30:41.168Z,7.35
2023-05-21T21:33:45.508Z,11.93
2023-05-21T21:36:48.993Z,9.85
2023-05-21T21:39:51.753Z,9.95
2023-05-21T21:42:53.565Z,10.15
2023-05-21T21:45:56.022Z,8.43
2023-05-21T21:48:58.550Z,9.32
2023-05-21T21:52:02.090Z,11.75
2023-05-21T21:55:07.643Z,9.38
2023-05-21T21:58:09.425Z,8.45
2023-05-21T22:01:11.302Z,11.43
2023-05-21T22:04:13.461Z,11.73
2023-05-21T22:07:17.153Z,10.65
2023-05-21T22:10:20.190Z,12.40
2023-05-21T22:13:24.109Z,7.93
2023-05-21T22:16:27.358Z,10.73
2023-05-21T22:19:31.750Z,12.15
2023-05-21T22:22:38.389Z,10.60
2023-05-21T22:25:41.745Z,9.50
2023-05-21T22:28:43.462Z,8.43
2023-05-21T22:31:47.433Z,8.70
2023-05-21T22:34:49.361Z,8.68
2023-05-21T22:37:52.861Z,8.52
2023-05-21T22:40:54.649Z,13.38
2023-05-21T22:43:56.716Z,10.57
2023-05-21T22:46:58.772Z,12.25
2023-05-21T22:50:00.897Z,13.48
2023-05-21T22:53:04.707Z,11.43
2023-05-21T22:56:09.097Z,11.10
2023-05-21T22:59:10.919Z,12.45
2023-05-21T23:02:13.441Z,9.35
2023-05-21T23:05:15.782Z,7.93
2023-05-21T23:08:20.413Z,8.63
2023-05-21T23:11:22.214Z,10.77
2023-05-21T23:14:24.969Z,9.45
2023-05-21T23:17:27.403Z,11.25
2023-05-21T23:20:29.267Z,8.38
2023-05-21T23:23:32.789Z,10.95
2023-05-21T23:26:34.726Z,11.25
2023-05-21T23:29:37.317Z,9.25
2023-05-21T23:32:39.259Z,8.38
2023-05-21T23:35:41.066Z,13.77
2023-05-21T23:38:44.174Z,12.10
2023-05-21T23:41:46.524Z,9.77
2023-05-21T23:44:48.813Z,10.55
2023-05-21T23:47:50.649Z,10.63
2023-05-21T23:50:53.278Z,16.00
2023-05-21T23:53:56.641Z,10.10
2023-05-21T23:56:58.363Z,11.80
